Adelphi, NY

4:22 PM EST on November 26, 2014 (GMT -0500)
Bedford-Stuyvesant | Change Station
CLOSE
Current Station
Personal Weather Station
Location: Brooklyn, NY
Elevation: 69 ft
Nearby Weather Stations

Elev 69 ft 40.68 °N, 73.93 °W | Updated 13 minutes ago

Rain
Rain
36.0 °F
Feels Like 30 °F
N
7.0
Wind Variable Wind from East
Gusts 16.0 mph

Today
High -- | Low -- °F
--% Chance of Precip.
Yesterday
High -- | Low -- °F
Precip. -- in
6:55 AM 4:30 PM
Waxing Crescent, 22% visible
Pressure 29.82 in
Visibility 4.0 miles
Clouds Overcast 1000 ft
Windchill 30 °F
Dew Point 35 °F
Humidity 95%
Rainfall 0.08 in
Snow Depth Not available.
UV 0 out of 12
Pollen .10 out of 12
Air Quality Not available.
Flu Activity Not available.
SPECI KNYC 262113Z AUTO 03015G23KT 350V070 4SM -RA BR OVC010 02/00 A2982 RMK AO2 UPB08E13 CIG 008V013 P0003 T00220000 $

More Conditions Fewer Conditions

Pressure 29.82 in
Visibility 4.0 miles
Clouds Overcast 1000 ft
Windchill 30 °F
Dew Point 35 °F
Humidity 95%
Rainfall 0.08 in
Snow Depth Not available.
UV 0 out of 12
Pollen .10 out of 12
Air Quality Not available.
Flu Activity Not available.
SPECI KNYC 262113Z AUTO 03015G23KT 350V070 4SM -RA BR OVC010 02/00 A2982 RMK AO2 UPB08E13 CIG 008V013 P0003 T00220000 $

More Conditions Fewer Conditions

10-Day Weather Forecast

Almanac

Astronomy

Nov. 26, 2014 Rise Set
Actual Time
Civil Twilight
Nautical Twilight
Astronomical Twilight
Moon
Length of Visible Light
Length of Day
Tomorrow will be .
, % of the Moon is Illuminated

Today's Extremes

State Highs State Lows

Community

WunderPhotos

Upload Photos

1,773,872 photos uploaded!

WunderBlogs® & News

Nearby

Air Quality

  Air Quality AQ Index Pollutant
Not available.

Snow Depth

Station Depth Elevation

Earthquake Activity

City Distance Mag. Time & Date
Minimum magnitude displayed is 2.5.

Coastal Water Temperatures

Place Temperature

Nearby Weather Stations